Aviation Digital Data Service (ADDS)

Output produced by METARs form (0322 UTC 12 December 2018)
found at http://www.aviationweather.gov/metar/data/
 
METAR text: LFMY 120300Z AUTO 00000KT CAVOK 00/M02 Q1019
Conditions at: LFMY (SALON (FAFB) , FR) observed 0300 UTC 12 December 2018
Temperature: 0.0°C (32°F)
Dewpoint: -2.0°C (28°F) [RH = 86%]
Pressure (altimeter): 30.09 inches Hg (1019.0 mb)
Winds: calm
Visibility: 6 or more miles (10+ km)
Ceiling: ceiling and visibility are OK
Clouds: unknown
Weather: no significant weather observed at this time

METAR text: LFMY 120230Z AUTO 00000KT CAVOK 01/M01 Q1019
Conditions at: LFMY (SALON (FAFB) , FR) observed 0230 UTC 12 December 2018
Temperature: 1.0°C (34°F)
Dewpoint: -1.0°C (30°F) [RH = 86%]
Pressure (altimeter): 30.09 inches Hg (1019.0 mb)
Winds: calm
Visibility: 6 or more miles (10+ km)
Ceiling: ceiling and visibility are OK
Clouds: unknown
Weather: no significant weather observed at this time

Forecast for: LFMY (SALON (FAFB) , FR)
Text: TAF LFMY 112000Z 1121/1221 33015G25KT CAVOK
Forecast period: 2100 UTC 11 December 2018 to 2100 UTC 12 December 2018
Forecast type: FROM: standard forecast or significant change
Winds: from the NNW (330 degrees) at 17 MPH (15 knots; 7.7 m/s)
gusting to 29 MPH (25 knots; 12.9 m/s)
Visibility: 6 or more miles 10+ km)
Ceiling: unknown
Clouds: missing
Weather: NSW  (no significant weather)